createdAt,value
2022-09-11T04:30:39.540Z,36.90
2022-09-11T04:36:05.107Z,40.28
2022-09-11T04:41:27.617Z,37.72
2022-09-11T04:46:49.745Z,39.40
2022-09-11T04:52:12.154Z,32.35
2022-09-11T04:57:34.176Z,34.55
2022-09-11T05:02:56.012Z,32.05
2022-09-11T05:08:18.981Z,35.83
2022-09-11T05:13:42.803Z,36.30
2022-09-11T05:19:04.476Z,32.47
2022-09-11T05:24:27.214Z,42.88
2022-09-11T05:29:50.615Z,36.10
2022-09-11T05:35:11.868Z,36.55
2022-09-11T05:40:32.985Z,35.08
2022-09-11T05:45:56.432Z,42.15
2022-09-11T05:51:21.650Z,39.97
2022-09-11T05:56:43.830Z,36.25
2022-09-11T06:02:11.619Z,39.38
2022-09-11T06:07:42.151Z,38.35
2022-09-11T06:13:03.575Z,38.28
2022-09-11T06:18:27.005Z,33.50
2022-09-11T06:23:53.327Z,39.17
2022-09-11T06:29:16.104Z,33.53
2022-09-11T06:34:41.286Z,35.00
2022-09-11T06:40:05.507Z,32.70
2022-09-11T06:45:26.685Z,36.50
2022-09-11T06:50:47.875Z,40.70
2022-09-11T06:56:12.899Z,35.95
2022-09-11T07:01:35.491Z,35.03
2022-09-11T07:06:57.190Z,34.63
2022-09-11T07:12:23.879Z,32.30
2022-09-11T07:17:45.065Z,37.42
2022-09-11T07:23:08.803Z,35.63
2022-09-11T07:28:31.050Z,30.40
2022-09-11T07:33:53.235Z,33.47
2022-09-11T07:39:16.392Z,31.20
2022-09-11T07:44:57.336Z,32.75
2022-09-11T07:50:24.244Z,30.98
2022-09-11T07:55:45.845Z,26.17
2022-09-11T08:01:15.798Z,28.00
2022-09-11T08:06:38.361Z,28.45
2022-09-11T08:12:05.278Z,26.80
2022-09-11T08:17:29.562Z,24.35
2022-09-11T08:22:50.438Z,24.27
2022-09-11T08:28:13.231Z,22.40
2022-09-11T08:33:34.279Z,20.85
2022-09-11T08:38:58.552Z,17.92
2022-09-11T08:44:21.218Z,17.33
2022-09-11T08:49:47.988Z,17.13
2022-09-11T08:55:13.555Z,17.10
2022-09-11T09:00:48.171Z,14.48
2022-09-11T09:06:58.139Z,13.40
2022-09-11T09:12:51.470Z,14.02
2022-09-11T09:18:34.020Z,14.88
2022-09-11T09:23:58.855Z,12.40
2022-09-11T09:29:30.507Z,15.93
2022-09-11T09:34:57.617Z,11.13
2022-09-11T09:40:19.155Z,11.88
2022-09-11T09:46:11.506Z,10.20
2022-09-11T09:51:32.307Z,7.78
2022-09-11T09:57:02.342Z,9.65
2022-09-11T10:02:43.426Z,13.47
2022-09-11T10:08:06.816Z,9.85
2022-09-11T10:13:31.538Z,7.00
2022-09-11T10:18:54.263Z,8.10
2022-09-11T10:24:18.089Z,8.15
2022-09-11T10:29:50.395Z,7.78
2022-09-11T10:35:11.625Z,7.00
2022-09-11T10:40:32.683Z,5.93
2022-09-11T10:46:24.904Z,7.45
2022-09-11T10:52:07.987Z,6.45
2022-09-11T10:57:42.862Z,9.27
2022-09-11T11:03:17.097Z,7.63
2022-09-11T11:08:37.834Z,5.13
2022-09-11T11:14:31.072Z,9.73
2022-09-11T11:20:04.725Z,5.75
2022-09-11T11:25:34.731Z,5.88
2022-09-11T11:31:22.146Z,8.15
2022-09-11T11:36:53.987Z,6.35
2022-09-11T11:42:23.320Z,7.60
2022-09-11T11:47:47.288Z,7.03
2022-09-11T11:53:08.452Z,6.90
2022-09-11T11:58:47.308Z,5.70
2022-09-11T12:04:19.890Z,8.73
2022-09-11T12:09:46.984Z,10.65
2022-09-11T12:15:10.358Z,9.25
2022-09-11T12:20:43.412Z,8.85
2022-09-11T12:26:10.501Z,8.50
2022-09-11T12:31:51.033Z,8.02
2022-09-11T12:42:57.669Z,8.73
2022-09-11T12:48:22.477Z,10.57
2022-09-11T12:53:47.065Z,8.15
2022-09-11T12:59:10.991Z,8.85
2022-09-11T13:04:33.185Z,9.45
2022-09-11T13:09:57.176Z,6.63
2022-09-11T13:15:34.542Z,9.25
2022-09-11T13:21:12.301Z,7.50
2022-09-11T13:26:33.412Z,5.57
2022-09-11T13:31:57.576Z,7.20
2022-09-11T13:37:33.895Z,6.50
2022-09-11T13:42:56.148Z,6.47
2022-09-11T13:48:22.860Z,6.43
2022-09-11T13:53:46.655Z,5.53
2022-09-11T13:59:49.035Z,8.65
2022-09-11T14:05:15.380Z,5.97
2022-09-11T14:10:42.030Z,6.15
2022-09-11T14:16:07.484Z,6.40
2022-09-11T14:21:35.656Z,5.45
2022-09-11T14:26:58.299Z,7.13
2022-09-11T14:32:40.052Z,6.88
2022-09-11T14:38:00.876Z,7.03
2022-09-11T14:43:26.513Z,4.97
2022-09-11T14:48:47.411Z,3.22
2022-09-11T14:54:15.327Z,5.22
2022-09-11T14:59:36.118Z,2.63
2022-09-11T15:04:58.349Z,5.30
2022-09-11T15:10:20.293Z,4.13
2022-09-11T15:15:41.294Z,4.57
2022-09-11T15:21:02.195Z,2.65
2022-09-11T15:26:23.076Z,2.70
2022-09-11T15:31:44.283Z,3.70
2022-09-11T15:37:05.451Z,2.45
2022-09-11T15:42:26.520Z,2.30
2022-09-11T15:47:47.804Z,3.28
2022-09-11T15:53:09.663Z,3.55
2022-09-11T15:58:32.551Z,3.47
2022-09-11T16:03:55.672Z,3.00
2022-09-11T16:09:22.930Z,2.38
2022-09-11T16:14:44.147Z,3.25
2022-09-11T16:20:05.839Z,6.25
2022-09-11T16:25:27.955Z,5.75
2022-09-11T16:30:55.069Z,3.90
2022-09-11T16:36:18.771Z,2.63
2022-09-11T16:41:40.608Z,3.78
2022-09-11T16:47:01.730Z,2.15
2022-09-11T16:52:22.554Z,3.63
2022-09-11T16:57:44.438Z,1.60
2022-09-11T17:03:05.328Z,2.03
2022-09-11T17:08:26.613Z,3.55
2022-09-11T17:13:48.781Z,5.30
2022-09-11T17:19:10.514Z,3.58
2022-09-11T17:24:32.115Z,4.75
2022-09-11T17:29:53.216Z,3.10
2022-09-11T17:35:14.788Z,3.35
2022-09-11T17:40:36.488Z,9.43
2022-09-11T17:46:08.897Z,5.00
2022-09-11T17:51:30.104Z,6.32
2022-09-11T17:56:51.490Z,3.17
2022-09-11T18:02:14.298Z,9.27
2022-09-11T18:07:35.283Z,7.28
2022-09-11T18:12:56.279Z,4.63
2022-09-11T18:18:17.391Z,5.43
2022-09-11T18:23:44.626Z,2.90
2022-09-11T18:29:10.009Z,6.85
2022-09-11T18:34:31.192Z,6.90
2022-09-11T18:39:52.046Z,3.60
2022-09-11T18:50:35.862Z,5.70
2022-09-11T18:56:02.205Z,3.60
2022-09-11T19:01:25.674Z,5.93
2022-09-11T19:06:46.620Z,3.88
2022-09-11T19:12:08.079Z,6.07
2022-09-11T19:17:28.856Z,5.50
2022-09-11T19:28:11.897Z,3.22
2022-09-11T19:33:34.166Z,3.58
2022-09-11T19:38:56.098Z,3.85
2022-09-11T19:44:17.502Z,4.82
2022-09-11T19:49:38.367Z,9.35
2022-09-11T20:00:22.529Z,4.13
2022-09-11T20:05:44.705Z,9.55
2022-09-11T20:11:07.603Z,8.45
2022-09-11T20:16:30.560Z,6.35
2022-09-11T20:21:51.761Z,6.57
2022-09-11T20:32:36.611Z,4.70
2022-09-11T20:37:57.412Z,4.80
2022-09-11T20:43:18.189Z,6.32
2022-09-11T20:54:00.596Z,7.03
2022-09-11T20:59:21.648Z,4.03
2022-09-11T21:10:03.702Z,7.18
2022-09-11T21:15:24.679Z,4.53
2022-09-11T21:20:53.731Z,5.95
2022-09-11T21:26:16.940Z,5.70
2022-09-11T21:31:38.033Z,5.05
2022-09-11T21:42:19.597Z,6.10
2022-09-11T21:53:01.373Z,9.55
